KRCR/RCR METAR and TAF weather

Enter ICAO airport designator
Station Type Date Time Source
KRCR METAR 2019/02/20 17:15 UTC NOAA

KRCR 201715Z AUTO 12014G18KT 2SM BR OVC007 02/00 A2985 RMK AO2


Station Type Date Time Source
KRCR Decoded METAR 2019/02/20 17:15 UTC NOAA

Station name not available
Feb 20, 2019 - 12:15 PM EST / 2019.02.20 1715 UTC
Wind: from the ESE (120 degrees) at 16 MPH (14 KT) gusting to 21 MPH (18 KT):0
Visibility: 2 mile(s):0
Sky conditions: overcast
Weather: mist
Temperature: 35 F (2 C)
Windchill: 24 F (-4 C):1
Dew Point: 32 F (0 C)
Relative Humidity: 86%
Pressure (altimeter): 29.85 in. Hg (1010 hPa)
ob: KRCR 201715Z AUTO 12014G18KT 2SM BR OVC007 02/00 A2985 RMK AO2
cycle: 17

Station Type Date Time Source
KRCR TAF UTC NOAA

Error!


Example: see airport list